sensor_id;sensor_type;location;lat;lon;timestamp;temperature;humidity
68943;DHT22;60852;52.190;4.422;2022-10-16T00:01:15;15.57;71.85
68943;DHT22;60852;52.190;4.422;2022-10-16T00:03:43;15.55;71.78
68943;DHT22;60852;52.190;4.422;2022-10-16T00:06:10;15.55;71.70
68943;DHT22;60852;52.190;4.422;2022-10-16T00:08:37;15.60;71.61
68943;DHT22;60852;52.190;4.422;2022-10-16T00:11:06;15.58;71.52
68943;DHT22;60852;52.190;4.422;2022-10-16T00:13:33;15.65;71.37
68943;DHT22;60852;52.190;4.422;2022-10-16T00:16:00;15.60;71.35
68943;DHT22;60852;52.190;4.422;2022-10-16T00:18:27;15.57;71.47
68943;DHT22;60852;52.190;4.422;2022-10-16T00:20:53;15.57;71.28
68943;DHT22;60852;52.190;4.422;2022-10-16T00:23:20;15.55;71.44
68943;DHT22;60852;52.190;4.422;2022-10-16T00:25:57;15.49;70.82
68943;DHT22;60852;52.190;4.422;2022-10-16T00:28:24;15.51;70.68
68943;DHT22;60852;52.190;4.422;2022-10-16T00:30:50;15.63;70.57
68943;DHT22;60852;52.190;4.422;2022-10-16T00:33:15;15.60;70.57
68943;DHT22;60852;52.190;4.422;2022-10-16T00:35:40;15.60;70.57
68943;DHT22;60852;52.190;4.422;2022-10-16T00:38:06;15.57;70.90
68943;DHT22;60852;52.190;4.422;2022-10-16T00:40:31;15.54;71.01
68943;DHT22;60852;52.190;4.422;2022-10-16T00:42:57;15.51;71.02
68943;DHT22;60852;52.190;4.422;2022-10-16T00:45:23;15.47;71.23
68943;DHT22;60852;52.190;4.422;2022-10-16T00:47:51;15.47;71.36
68943;DHT22;60852;52.190;4.422;2022-10-16T00:50:27;15.43;71.22
68943;DHT22;60852;52.190;4.422;2022-10-16T00:52:55;15.39;71.45
68943;DHT22;60852;52.190;4.422;2022-10-16T00:55:21;15.39;71.55
68943;DHT22;60852;52.190;4.422;2022-10-16T00:57:48;15.32;71.59
68943;DHT22;60852;52.190;4.422;2022-10-16T01:00:23;15.32;71.75
68943;DHT22;60852;52.190;4.422;2022-10-16T01:02:57;15.32;71.83
68943;DHT22;60852;52.190;4.422;2022-10-16T01:05:39;15.36;71.86
68943;DHT22;60852;52.190;4.422;2022-10-16T01:08:18;15.33;71.91
68943;DHT22;60852;52.190;4.422;2022-10-16T01:11:22;15.33;72.11
68943;DHT22;60852;52.190;4.422;2022-10-16T01:13:57;15.33;72.09
68943;DHT22;60852;52.190;4.422;2022-10-16T01:16:37;15.34;72.21
68943;DHT22;60852;52.190;4.422;2022-10-16T01:19:19;15.42;72.26
68943;DHT22;60852;52.190;4.422;2022-10-16T01:21:47;15.47;72.09
68943;DHT22;60852;52.190;4.422;2022-10-16T01:24:41;15.44;72.35
68943;DHT22;60852;52.190;4.422;2022-10-16T01:27:13;15.43;72.46
68943;DHT22;60852;52.190;4.422;2022-10-16T01:30:39;15.37;73.04
68943;DHT22;60852;52.190;4.422;2022-10-16T01:40:51;15.19;74.41
68943;DHT22;60852;52.190;4.422;2022-10-16T01:43:31;15.19;74.53
68943;DHT22;60852;52.190;4.422;2022-10-16T01:46:00;15.16;74.74
68943;DHT22;60852;52.190;4.422;2022-10-16T01:48:25;15.09;75.08
68943;DHT22;60852;52.190;4.422;2022-10-16T01:51:07;15.15;75.08
68943;DHT22;60852;52.190;4.422;2022-10-16T01:53:34;15.13;75.31
68943;DHT22;60852;52.190;4.422;2022-10-16T01:56:04;15.23;75.29
68943;DHT22;60852;52.190;4.422;2022-10-16T01:58:35;15.20;75.25
68943;DHT22;60852;52.190;4.422;2022-10-16T02:01:07;15.19;75.52
68943;DHT22;60852;52.190;4.422;2022-10-16T02:03:40;15.05;76.17
68943;DHT22;60852;52.190;4.422;2022-10-16T02:06:07;15.09;76.54
68943;DHT22;60852;52.190;4.422;2022-10-16T02:08:33;15.06;76.36
68943;DHT22;60852;52.190;4.422;2022-10-16T02:11:00;15.06;76.35
68943;DHT22;60852;52.190;4.422;2022-10-16T02:13:50;15.12;76.31
68943;DHT22;60852;52.190;4.422;2022-10-16T02:16:17;15.10;76.18
68943;DHT22;60852;52.190;4.422;2022-10-16T02:18:43;15.05;76.29
68943;DHT22;60852;52.190;4.422;2022-10-16T02:21:25;15.02;76.75
68943;DHT22;60852;52.190;4.422;2022-10-16T02:24:30;14.99;77.04
68943;DHT22;60852;52.190;4.422;2022-10-16T02:27:06;15.06;76.99
68943;DHT22;60852;52.190;4.422;2022-10-16T02:29:43;14.93;77.43
68943;DHT22;60852;52.190;4.422;2022-10-16T02:32:19;14.79;77.93
68943;DHT22;60852;52.190;4.422;2022-10-16T02:34:48;14.76;78.10
68943;DHT22;60852;52.190;4.422;2022-10-16T02:37:16;14.71;78.17
68943;DHT22;60852;52.190;4.422;2022-10-16T02:39:43;14.71;78.49
68943;DHT22;60852;52.190;4.422;2022-10-16T02:42:13;14.67;78.64
68943;DHT22;60852;52.190;4.422;2022-10-16T02:44:39;14.57;78.92
68943;DHT22;60852;52.190;4.422;2022-10-16T02:47:05;14.60;78.91
68943;DHT22;60852;52.190;4.422;2022-10-16T02:49:31;14.64;79.01
68943;DHT22;60852;52.190;4.422;2022-10-16T02:51:56;14.71;78.72
68943;DHT22;60852;52.190;4.422;2022-10-16T02:54:21;14.65;78.73
68943;DHT22;60852;52.190;4.422;2022-10-16T02:56:47;14.58;78.91
68943;DHT22;60852;52.190;4.422;2022-10-16T02:59:12;14.65;78.91
68943;DHT22;60852;52.190;4.422;2022-10-16T03:01:38;14.65;78.95
68943;DHT22;60852;52.190;4.422;2022-10-16T03:04:03;14.64;78.94
68943;DHT22;60852;52.190;4.422;2022-10-16T03:06:29;14.65;78.97
68943;DHT22;60852;52.190;4.422;2022-10-16T03:08:54;14.75;78.83
68943;DHT22;60852;52.190;4.422;2022-10-16T03:11:19;14.72;78.78
68943;DHT22;60852;52.190;4.422;2022-10-16T03:13:45;14.74;78.71
68943;DHT22;60852;52.190;4.422;2022-10-16T03:16:10;14.71;78.92
68943;DHT22;60852;52.190;4.422;2022-10-16T03:18:36;14.64;79.20
68943;DHT22;60852;52.190;4.422;2022-10-16T03:21:02;14.65;79.27
68943;DHT22;60852;52.190;4.422;2022-10-16T03:23:27;14.65;79.29
68943;DHT22;60852;52.190;4.422;2022-10-16T03:25:53;14.64;79.31
68943;DHT22;60852;52.190;4.422;2022-10-16T03:28:19;14.68;79.33
68943;DHT22;60852;52.190;4.422;2022-10-16T03:30:44;14.71;79.33
68943;DHT22;60852;52.190;4.422;2022-10-16T03:33:10;14.69;79.29
68943;DHT22;60852;52.190;4.422;2022-10-16T03:35:35;14.75;79.18
68943;DHT22;60852;52.190;4.422;2022-10-16T03:38:01;14.64;79.44
68943;DHT22;60852;52.190;4.422;2022-10-16T03:40:26;14.68;79.44
68943;DHT22;60852;52.190;4.422;2022-10-16T03:42:51;14.74;79.21
68943;DHT22;60852;52.190;4.422;2022-10-16T03:45:18;14.74;79.22
68943;DHT22;60852;52.190;4.422;2022-10-16T03:47:43;14.79;79.01
68943;DHT22;60852;52.190;4.422;2022-10-16T03:50:09;14.91;78.55
68943;DHT22;60852;52.190;4.422;2022-10-16T03:52:34;14.85;78.79
68943;DHT22;60852;52.190;4.422;2022-10-16T03:54:59;14.84;78.90
68943;DHT22;60852;52.190;4.422;2022-10-16T03:57:25;14.91;78.92
68943;DHT22;60852;52.190;4.422;2022-10-16T03:59:50;14.96;78.87
68943;DHT22;60852;52.190;4.422;2022-10-16T04:02:16;14.98;79.00
68943;DHT22;60852;52.190;4.422;2022-10-16T04:04:41;14.99;79.30
68943;DHT22;60852;52.190;4.422;2022-10-16T04:07:07;14.98;79.70
68943;DHT22;60852;52.190;4.422;2022-10-16T04:09:33;14.86;80.47
68943;DHT22;60852;52.190;4.422;2022-10-16T04:11:58;14.88;80.70
68943;DHT22;60852;52.190;4.422;2022-10-16T04:14:24;14.89;80.94
68943;DHT22;60852;52.190;4.422;2022-10-16T04:16:49;14.84;81.31
68943;DHT22;60852;52.190;4.422;2022-10-16T04:19:15;14.82;81.46
68943;DHT22;60852;52.190;4.422;2022-10-16T04:21:40;14.81;81.54
68943;DHT22;60852;52.190;4.422;2022-10-16T04:24:06;14.75;81.62
68943;DHT22;60852;52.190;4.422;2022-10-16T04:26:31;14.67;81.74
68943;DHT22;60852;52.190;4.422;2022-10-16T04:28:57;14.58;82.57
68943;DHT22;60852;52.190;4.422;2022-10-16T04:31:22;14.57;83.50
68943;DHT22;60852;52.190;4.422;2022-10-16T04:33:47;14.48;83.68
68943;DHT22;60852;52.190;4.422;2022-10-16T04:36:13;14.41;83.87
68943;DHT22;60852;52.190;4.422;2022-10-16T04:38:39;14.40;84.12
68943;DHT22;60852;52.190;4.422;2022-10-16T04:41:06;14.48;84.05
68943;DHT22;60852;52.190;4.422;2022-10-16T04:43:32;14.51;83.63
68943;DHT22;60852;52.190;4.422;2022-10-16T04:45:57;14.47;83.56
68943;DHT22;60852;52.190;4.422;2022-10-16T04:48:23;14.47;83.88
68943;DHT22;60852;52.190;4.422;2022-10-16T04:50:48;14.42;83.59
68943;DHT22;60852;52.190;4.422;2022-10-16T04:53:13;14.44;83.76
68943;DHT22;60852;52.190;4.422;2022-10-16T04:55:41;14.42;83.93
68943;DHT22;60852;52.190;4.422;2022-10-16T04:58:06;14.47;83.86
68943;DHT22;60852;52.190;4.422;2022-10-16T05:00:32;14.48;83.98
68943;DHT22;60852;52.190;4.422;2022-10-16T05:02:57;14.45;84.27
68943;DHT22;60852;52.190;4.422;2022-10-16T05:05:24;14.44;84.25
68943;DHT22;60852;52.190;4.422;2022-10-16T05:07:51;14.37;84.58
68943;DHT22;60852;52.190;4.422;2022-10-16T05:10:16;14.40;84.63
68943;DHT22;60852;52.190;4.422;2022-10-16T05:12:42;14.40;84.56
68943;DHT22;60852;52.190;4.422;2022-10-16T05:15:07;14.33;84.67
68943;DHT22;60852;52.190;4.422;2022-10-16T05:17:33;14.36;84.84
68943;DHT22;60852;52.190;4.422;2022-10-16T05:19:58;14.38;84.66
68943;DHT22;60852;52.190;4.422;2022-10-16T05:22:24;14.30;84.96
68943;DHT22;60852;52.190;4.422;2022-10-16T05:24:50;14.23;85.29
68943;DHT22;60852;52.190;4.422;2022-10-16T05:27:15;14.17;85.70
68943;DHT22;60852;52.190;4.422;2022-10-16T05:29:48;14.21;85.67
68943;DHT22;60852;52.190;4.422;2022-10-16T05:32:18;14.21;85.83
68943;DHT22;60852;52.190;4.422;2022-10-16T05:34:44;14.12;85.84
68943;DHT22;60852;52.190;4.422;2022-10-16T05:37:09;14.03;86.45
68943;DHT22;60852;52.190;4.422;2022-10-16T05:39:36;13.97;87.24
68943;DHT22;60852;52.190;4.422;2022-10-16T05:42:02;13.91;87.72
68943;DHT22;60852;52.190;4.422;2022-10-16T05:44:27;14.00;87.74
68943;DHT22;60852;52.190;4.422;2022-10-16T05:46:53;14.02;87.57
68943;DHT22;60852;52.190;4.422;2022-10-16T05:49:18;13.93;87.70
68943;DHT22;60852;52.190;4.422;2022-10-16T05:51:44;13.87;88.02
68943;DHT22;60852;52.190;4.422;2022-10-16T05:54:09;13.93;88.08
68943;DHT22;60852;52.190;4.422;2022-10-16T05:56:35;13.93;87.98
68943;DHT22;60852;52.190;4.422;2022-10-16T05:59:00;13.95;87.92
68943;DHT22;60852;52.190;4.422;2022-10-16T06:01:26;13.95;87.89
68943;DHT22;60852;52.190;4.422;2022-10-16T06:03:52;13.99;87.64
68943;DHT22;60852;52.190;4.422;2022-10-16T06:06:23;13.96;87.61
68943;DHT22;60852;52.190;4.422;2022-10-16T06:08:52;13.96;87.41
68943;DHT22;60852;52.190;4.422;2022-10-16T06:11:20;13.95;87.50
68943;DHT22;60852;52.190;4.422;2022-10-16T06:13:50;13.97;87.62
68943;DHT22;60852;52.190;4.422;2022-10-16T06:16:16;13.99;87.32
68943;DHT22;60852;52.190;4.422;2022-10-16T06:18:41;13.95;87.31
68943;DHT22;60852;52.190;4.422;2022-10-16T06:21:12;13.97;87.21
68943;DHT22;60852;52.190;4.422;2022-10-16T06:23:39;14.02;86.82
68943;DHT22;60852;52.190;4.422;2022-10-16T06:26:09;14.06;86.66
68943;DHT22;60852;52.190;4.422;2022-10-16T06:28:35;14.10;86.63
68943;DHT22;60852;52.190;4.422;2022-10-16T06:31:01;14.09;86.52
68943;DHT22;60852;52.190;4.422;2022-10-16T06:33:27;14.02;86.31
68943;DHT22;60852;52.190;4.422;2022-10-16T06:35:53;14.05;86.27
68943;DHT22;60852;52.190;4.422;2022-10-16T06:38:18;13.97;86.19
68943;DHT22;60852;52.190;4.422;2022-10-16T06:40:44;14.02;86.27
68943;DHT22;60852;52.190;4.422;2022-10-16T06:43:09;14.03;85.92
68943;DHT22;60852;52.190;4.422;2022-10-16T06:45:34;14.05;85.90
68943;DHT22;60852;52.190;4.422;2022-10-16T06:48:00;14.06;85.54
68943;DHT22;60852;52.190;4.422;2022-10-16T06:50:25;14.03;85.51
68943;DHT22;60852;52.190;4.422;2022-10-16T06:52:51;13.99;85.73
68943;DHT22;60852;52.190;4.422;2022-10-16T06:55:16;14.02;85.66
68943;DHT22;60852;52.190;4.422;2022-10-16T06:57:43;14.00;85.34
68943;DHT22;60852;52.190;4.422;2022-10-16T07:00:09;13.97;85.60
68943;DHT22;60852;52.190;4.422;2022-10-16T07:02:34;13.99;85.67
68943;DHT22;60852;52.190;4.422;2022-10-16T07:05:00;14.00;85.56
68943;DHT22;60852;52.190;4.422;2022-10-16T07:07:25;14.02;85.63
68943;DHT22;60852;52.190;4.422;2022-10-16T07:09:52;14.07;85.42
68943;DHT22;60852;52.190;4.422;2022-10-16T07:12:17;14.05;85.39
68943;DHT22;60852;52.190;4.422;2022-10-16T07:14:43;14.05;85.70
68943;DHT22;60852;52.190;4.422;2022-10-16T07:17:09;14.06;85.78
68943;DHT22;60852;52.190;4.422;2022-10-16T07:19:34;14.12;85.89
68943;DHT22;60852;52.190;4.422;2022-10-16T07:22:00;14.21;85.73
68943;DHT22;60852;52.190;4.422;2022-10-16T07:24:26;14.16;85.87
68943;DHT22;60852;52.190;4.422;2022-10-16T07:26:51;14.24;85.91
68943;DHT22;60852;52.190;4.422;2022-10-16T07:29:20;14.24;85.94
68943;DHT22;60852;52.190;4.422;2022-10-16T07:31:48;14.23;86.15
68943;DHT22;60852;52.190;4.422;2022-10-16T07:34:16;14.34;86.03
68943;DHT22;60852;52.190;4.422;2022-10-16T07:36:42;14.38;85.55
68943;DHT22;60852;52.190;4.422;2022-10-16T07:39:07;14.40;85.77
68943;DHT22;60852;52.190;4.422;2022-10-16T07:41:33;14.52;85.35
68943;DHT22;60852;52.190;4.422;2022-10-16T07:44:03;14.60;85.11
68943;DHT22;60852;52.190;4.422;2022-10-16T07:46:28;14.63;85.00
68943;DHT22;60852;52.190;4.422;2022-10-16T07:48:54;14.67;85.13
68943;DHT22;60852;52.190;4.422;2022-10-16T07:51:22;14.57;85.33
68943;DHT22;60852;52.190;4.422;2022-10-16T07:53:49;14.71;85.14
68943;DHT22;60852;52.190;4.422;2022-10-16T07:56:16;14.75;84.90
68943;DHT22;60852;52.190;4.422;2022-10-16T07:58:42;14.78;85.00
68943;DHT22;60852;52.190;4.422;2022-10-16T08:01:13;14.89;84.69
68943;DHT22;60852;52.190;4.422;2022-10-16T08:03:47;14.99;84.51
68943;DHT22;60852;52.190;4.422;2022-10-16T08:06:15;15.09;84.36
68943;DHT22;60852;52.190;4.422;2022-10-16T08:08:40;15.19;84.04
68943;DHT22;60852;52.190;4.422;2022-10-16T08:11:06;15.15;83.68
68943;DHT22;60852;52.190;4.422;2022-10-16T08:13:32;15.13;83.68
68943;DHT22;60852;52.190;4.422;2022-10-16T08:15:58;15.09;83.85
68943;DHT22;60852;52.190;4.422;2022-10-16T08:18:23;15.07;83.94
68943;DHT22;60852;52.190;4.422;2022-10-16T08:20:58;15.15;84.18
68943;DHT22;60852;52.190;4.422;2022-10-16T08:23:23;15.15;83.99
68943;DHT22;60852;52.190;4.422;2022-10-16T08:25:51;15.16;83.72
68943;DHT22;60852;52.190;4.422;2022-10-16T08:28:17;15.15;83.94
68943;DHT22;60852;52.190;4.422;2022-10-16T08:30:42;15.22;83.64
68943;DHT22;60852;52.190;4.422;2022-10-16T08:33:08;15.23;83.57
68943;DHT22;60852;52.190;4.422;2022-10-16T08:35:33;15.33;83.39
68943;DHT22;60852;52.190;4.422;2022-10-16T08:37:59;15.44;83.36
68943;DHT22;60852;52.190;4.422;2022-10-16T08:40:28;15.42;83.12
68943;DHT22;60852;52.190;4.422;2022-10-16T08:46:30;15.47;83.12
68943;DHT22;60852;52.190;4.422;2022-10-16T08:48:59;15.55;82.93
68943;DHT22;60852;52.190;4.422;2022-10-16T08:51:32;15.64;82.67
68943;DHT22;60852;52.190;4.422;2022-10-16T08:54:06;15.74;82.55
68943;DHT22;60852;52.190;4.422;2022-10-16T08:56:31;15.67;82.18
68943;DHT22;60852;52.190;4.422;2022-10-16T08:58:59;15.70;82.39
68943;DHT22;60852;52.190;4.422;2022-10-16T09:01:44;15.78;82.09
68943;DHT22;60852;52.190;4.422;2022-10-16T09:06:56;15.94;81.68
68943;DHT22;60852;52.190;4.422;2022-10-16T09:12:37;16.11;81.97
68943;DHT22;60852;52.190;4.422;2022-10-16T09:15:32;16.11;80.69
68943;DHT22;60852;52.190;4.422;2022-10-16T09:21:09;16.14;79.98
68943;DHT22;60852;52.190;4.422;2022-10-16T09:23:38;16.18;79.17
68943;DHT22;60852;52.190;4.422;2022-10-16T09:26:05;16.16;77.72
68943;DHT22;60852;52.190;4.422;2022-10-16T09:28:34;16.29;77.24
68943;DHT22;60852;52.190;4.422;2022-10-16T09:31:00;16.30;77.36
68943;DHT22;60852;52.190;4.422;2022-10-16T09:33:33;16.41;77.92
68943;DHT22;60852;52.190;4.422;2022-10-16T09:35:59;16.42;77.40
68943;DHT22;60852;52.190;4.422;2022-10-16T09:38:35;16.56;77.93
68943;DHT22;60852;52.190;4.422;2022-10-16T09:41:11;16.70;77.69
68943;DHT22;60852;52.190;4.422;2022-10-16T09:43:57;16.81;75.78
68943;DHT22;60852;52.190;4.422;2022-10-16T09:49:00;16.69;74.19
68943;DHT22;60852;52.190;4.422;2022-10-16T09:51:28;16.73;73.75
68943;DHT22;60852;52.190;4.422;2022-10-16T09:54:11;16.81;73.41
68943;DHT22;60852;52.190;4.422;2022-10-16T09:56:38;16.79;73.57
68943;DHT22;60852;52.190;4.422;2022-10-16T09:59:17;16.83;72.67
68943;DHT22;60852;52.190;4.422;2022-10-16T10:01:47;16.85;72.34
68943;DHT22;60852;52.190;4.422;2022-10-16T10:04:13;16.91;72.97
68943;DHT22;60852;52.190;4.422;2022-10-16T10:06:51;17.10;73.28
68943;DHT22;60852;52.190;4.422;2022-10-16T10:09:39;17.07;73.56
68943;DHT22;60852;52.190;4.422;2022-10-16T10:12:37;17.04;72.92
68943;DHT22;60852;52.190;4.422;2022-10-16T10:15:11;17.14;72.19
68943;DHT22;60852;52.190;4.422;2022-10-16T10:17:55;17.25;71.61
68943;DHT22;60852;52.190;4.422;2022-10-16T10:22:53;17.08;69.93
68943;DHT22;60852;52.190;4.422;2022-10-16T10:25:32;17.06;69.28
68943;DHT22;60852;52.190;4.422;2022-10-16T10:39:00;18.51;62.02
68943;DHT22;60852;52.190;4.422;2022-10-16T10:47:08;18.65;58.29
68943;DHT22;60852;52.190;4.422;2022-10-16T10:49:51;19.18;57.49
68943;DHT22;60852;52.190;4.422;2022-10-16T10:57:43;19.50;53.90
68943;DHT22;60852;52.190;4.422;2022-10-16T11:00:41;19.47;54.29
68943;DHT22;60852;52.190;4.422;2022-10-16T11:06:20;18.96;59.93
68943;DHT22;60852;52.190;4.422;2022-10-16T11:09:24;18.73;60.92
68943;DHT22;60852;52.190;4.422;2022-10-16T11:12:14;18.71;62.21
68943;DHT22;60852;52.190;4.422;2022-10-16T11:17:31;18.94;59.30
68943;DHT22;60852;52.190;4.422;2022-10-16T11:20:20;18.96;60.19
68943;DHT22;60852;52.190;4.422;2022-10-16T11:23:02;18.82;60.64
68943;DHT22;60852;52.190;4.422;2022-10-16T11:25:32;18.68;59.92
68943;DHT22;60852;52.190;4.422;2022-10-16T11:28:25;18.54;60.31
68943;DHT22;60852;52.190;4.422;2022-10-16T11:31:00;18.55;61.13
68943;DHT22;60852;52.190;4.422;2022-10-16T11:33:37;18.44;61.12
68943;DHT22;60852;52.190;4.422;2022-10-16T11:41:41;18.01;62.50
68943;DHT22;60852;52.190;4.422;2022-10-16T11:47:23;18.00;60.35
68943;DHT22;60852;52.190;4.422;2022-10-16T11:49:55;18.11;59.73
68943;DHT22;60852;52.190;4.422;2022-10-16T11:52:26;18.23;59.14
68943;DHT22;60852;52.190;4.422;2022-10-16T11:57:40;18.34;59.02
68943;DHT22;60852;52.190;4.422;2022-10-16T12:06:01;18.50;58.90
68943;DHT22;60852;52.190;4.422;2022-10-16T12:08:34;18.52;59.06
68943;DHT22;60852;52.190;4.422;2022-10-16T12:13:49;18.57;58.51
68943;DHT22;60852;52.190;4.422;2022-10-16T12:18:44;18.43;58.37
68943;DHT22;60852;52.190;4.422;2022-10-16T12:21:12;18.36;58.28
68943;DHT22;60852;52.190;4.422;2022-10-16T12:23:53;18.41;58.76
68943;DHT22;60852;52.190;4.422;2022-10-16T12:26:28;18.27;59.10
68943;DHT22;60852;52.190;4.422;2022-10-16T12:28:55;18.41;58.02
68943;DHT22;60852;52.190;4.422;2022-10-16T12:31:21;18.51;57.55
68943;DHT22;60852;52.190;4.422;2022-10-16T12:34:04;18.51;56.74
68943;DHT22;60852;52.190;4.422;2022-10-16T12:36:32;18.40;56.19
68943;DHT22;60852;52.190;4.422;2022-10-16T12:39:05;18.24;57.90
68943;DHT22;60852;52.190;4.422;2022-10-16T12:41:33;18.38;58.39
68943;DHT22;60852;52.190;4.422;2022-10-16T12:44:05;18.54;58.77
68943;DHT22;60852;52.190;4.422;2022-10-16T13:05:43;18.38;59.45
68943;DHT22;60852;52.190;4.422;2022-10-16T13:08:22;18.48;58.87
68943;DHT22;60852;52.190;4.422;2022-10-16T13:11:00;18.52;58.07
68943;DHT22;60852;52.190;4.422;2022-10-16T13:21:53;18.51;57.55
68943;DHT22;60852;52.190;4.422;2022-10-16T13:24:28;18.50;58.07
68943;DHT22;60852;52.190;4.422;2022-10-16T13:27:07;18.52;58.23
68943;DHT22;60852;52.190;4.422;2022-10-16T13:29:34;18.62;58.52
68943;DHT22;60852;52.190;4.422;2022-10-16T13:32:07;18.64;58.27
68943;DHT22;60852;52.190;4.422;2022-10-16T13:34:46;18.62;56.16
68943;DHT22;60852;52.190;4.422;2022-10-16T13:37:24;18.54;55.28
68943;DHT22;60852;52.190;4.422;2022-10-16T13:39:50;18.43;55.09
68943;DHT22;60852;52.190;4.422;2022-10-16T13:42:26;18.41;55.79
68943;DHT22;60852;52.190;4.422;2022-10-16T13:44:54;18.44;55.82
68943;DHT22;60852;52.190;4.422;2022-10-16T13:47:28;18.57;55.41
68943;DHT22;60852;52.190;4.422;2022-10-16T13:50:01;18.57;55.16
68943;DHT22;60852;52.190;4.422;2022-10-16T13:52:27;18.60;56.08
68943;DHT22;60852;52.190;4.422;2022-10-16T13:54:53;18.68;56.56
68943;DHT22;60852;52.190;4.422;2022-10-16T13:57:22;18.65;55.18
68943;DHT22;60852;52.190;4.422;2022-10-16T13:59:48;18.61;55.13
68943;DHT22;60852;52.190;4.422;2022-10-16T14:02:25;18.44;53.14
68943;DHT22;60852;52.190;4.422;2022-10-16T14:04:53;18.36;52.79
68943;DHT22;60852;52.190;4.422;2022-10-16T14:07:25;18.36;53.00
68943;DHT22;60852;52.190;4.422;2022-10-16T14:09:53;18.38;53.79
68943;DHT22;60852;52.190;4.422;2022-10-16T14:12:19;18.31;53.51
68943;DHT22;60852;52.190;4.422;2022-10-16T14:14:50;18.23;53.92
68943;DHT22;60852;52.190;4.422;2022-10-16T14:17:30;18.23;54.19
68943;DHT22;60852;52.190;4.422;2022-10-16T14:19:59;18.30;55.00
68943;DHT22;60852;52.190;4.422;2022-10-16T14:22:30;18.37;55.12
68943;DHT22;60852;52.190;4.422;2022-10-16T14:24:57;18.48;55.39
68943;DHT22;60852;52.190;4.422;2022-10-16T14:27:29;18.50;55.79
68943;DHT22;60852;52.190;4.422;2022-10-16T14:30:18;18.57;55.16
68943;DHT22;60852;52.190;4.422;2022-10-16T14:35:35;18.50;54.45
68943;DHT22;60852;52.190;4.422;2022-10-16T14:38:03;18.52;55.35
68943;DHT22;60852;52.190;4.422;2022-10-16T14:40:32;18.48;55.85
68943;DHT22;60852;52.190;4.422;2022-10-16T14:42:59;18.45;56.34
68943;DHT22;60852;52.190;4.422;2022-10-16T14:45:29;18.52;57.03
68943;DHT22;60852;52.190;4.422;2022-10-16T14:47:59;18.51;56.32
68943;DHT22;60852;52.190;4.422;2022-10-16T14:50:25;18.45;56.74
68943;DHT22;60852;52.190;4.422;2022-10-16T14:52:51;18.50;57.47
68943;DHT22;60852;52.190;4.422;2022-10-16T14:55:17;18.51;57.36
68943;DHT22;60852;52.190;4.422;2022-10-16T14:57:44;18.54;57.41
68943;DHT22;60852;52.190;4.422;2022-10-16T15:00:22;18.52;58.39
68943;DHT22;60852;52.190;4.422;2022-10-16T15:02:49;18.58;59.00
68943;DHT22;60852;52.190;4.422;2022-10-16T15:05:21;18.61;59.28
68943;DHT22;60852;52.190;4.422;2022-10-16T15:07:47;18.60;59.53
68943;DHT22;60852;52.190;4.422;2022-10-16T15:10:16;18.57;60.22
68943;DHT22;60852;52.190;4.422;2022-10-16T15:12:42;18.54;61.01
68943;DHT22;60852;52.190;4.422;2022-10-16T15:17:48;18.48;60.50
68943;DHT22;60852;52.190;4.422;2022-10-16T15:20:17;18.45;60.23
68943;DHT22;60852;52.190;4.422;2022-10-16T15:22:43;18.40;60.96
68943;DHT22;60852;52.190;4.422;2022-10-16T15:25:33;18.36;60.98
68943;DHT22;60852;52.190;4.422;2022-10-16T15:28:00;18.34;60.72
68943;DHT22;60852;52.190;4.422;2022-10-16T15:30:26;18.29;61.00
68943;DHT22;60852;52.190;4.422;2022-10-16T15:32:52;18.21;61.13
68943;DHT22;60852;52.190;4.422;2022-10-16T15:35:18;18.21;60.64
68943;DHT22;60852;52.190;4.422;2022-10-16T15:37:44;18.23;61.48
68943;DHT22;60852;52.190;4.422;2022-10-16T15:40:10;18.18;60.97
68943;DHT22;60852;52.190;4.422;2022-10-16T15:42:36;18.16;61.20
68943;DHT22;60852;52.190;4.422;2022-10-16T15:45:02;18.18;61.35
68943;DHT22;60852;52.190;4.422;2022-10-16T15:47:29;18.16;60.77
68943;DHT22;60852;52.190;4.422;2022-10-16T15:49:54;18.11;59.92
68943;DHT22;60852;52.190;4.422;2022-10-16T15:52:20;18.14;60.53
68943;DHT22;60852;52.190;4.422;2022-10-16T15:54:45;18.07;61.14
68943;DHT22;60852;52.190;4.422;2022-10-16T15:57:11;18.06;62.03
68943;DHT22;60852;52.190;4.422;2022-10-16T15:59:36;18.04;61.85
68943;DHT22;60852;52.190;4.422;2022-10-16T16:02:02;18.03;61.96
68943;DHT22;60852;52.190;4.422;2022-10-16T16:04:31;17.96;62.38
68943;DHT22;60852;52.190;4.422;2022-10-16T16:06:56;17.92;62.28
68943;DHT22;60852;52.190;4.422;2022-10-16T16:09:22;17.92;62.80
68943;DHT22;60852;52.190;4.422;2022-10-16T16:11:49;17.87;62.38
68943;DHT22;60852;52.190;4.422;2022-10-16T16:14:14;17.76;62.24
68943;DHT22;60852;52.190;4.422;2022-10-16T16:16:41;17.76;62.47
68943;DHT22;60852;52.190;4.422;2022-10-16T16:19:07;17.75;63.01
68943;DHT22;60852;52.190;4.422;2022-10-16T16:21:33;17.72;63.07
68943;DHT22;60852;52.190;4.422;2022-10-16T16:23:59;17.68;63.19
68943;DHT22;60852;52.190;4.422;2022-10-16T16:26:27;17.61;63.76
68943;DHT22;60852;52.190;4.422;2022-10-16T16:28:57;17.61;64.28
68943;DHT22;60852;52.190;4.422;2022-10-16T16:31:25;17.56;64.77
68943;DHT22;60852;52.190;4.422;2022-10-16T16:33:51;17.51;65.08
68943;DHT22;60852;52.190;4.422;2022-10-16T16:36:18;17.46;65.45
68943;DHT22;60852;52.190;4.422;2022-10-16T16:38:47;17.39;65.78
68943;DHT22;60852;52.190;4.422;2022-10-16T16:41:15;17.34;65.92
68943;DHT22;60852;52.190;4.422;2022-10-16T16:43:41;17.32;66.15
68943;DHT22;60852;52.190;4.422;2022-10-16T16:46:07;17.25;66.58
68943;DHT22;60852;52.190;4.422;2022-10-16T16:48:32;17.22;66.74
68943;DHT22;60852;52.190;4.422;2022-10-16T16:51:09;17.24;67.22
68943;DHT22;60852;52.190;4.422;2022-10-16T16:53:36;17.24;67.48
68943;DHT22;60852;52.190;4.422;2022-10-16T16:56:04;17.24;67.71
68943;DHT22;60852;52.190;4.422;2022-10-16T16:58:30;17.22;66.72
68943;DHT22;60852;52.190;4.422;2022-10-16T17:00:56;17.12;66.08
68943;DHT22;60852;52.190;4.422;2022-10-16T17:03:26;17.08;66.58
68943;DHT22;60852;52.190;4.422;2022-10-16T17:06:00;17.07;66.18
68943;DHT22;60852;52.190;4.422;2022-10-16T17:08:26;17.14;67.00
68943;DHT22;60852;52.190;4.422;2022-10-16T17:10:52;17.14;66.90
68943;DHT22;60852;52.190;4.422;2022-10-16T17:13:28;17.18;67.25
68943;DHT22;60852;52.190;4.422;2022-10-16T17:15:54;17.17;67.49
68943;DHT22;60852;52.190;4.422;2022-10-16T17:18:22;17.14;67.44
68943;DHT22;60852;52.190;4.422;2022-10-16T17:20:48;17.11;67.74
68943;DHT22;60852;52.190;4.422;2022-10-16T17:23:16;17.12;67.78
68943;DHT22;60852;52.190;4.422;2022-10-16T17:25:42;17.10;66.61
68943;DHT22;60852;52.190;4.422;2022-10-16T17:28:09;17.08;66.50
68943;DHT22;60852;52.190;4.422;2022-10-16T17:30:42;17.04;66.88
68943;DHT22;60852;52.190;4.422;2022-10-16T17:33:09;16.94;67.15